createdAt,value
2018-07-26T00:01:44.381Z,25.90
2018-07-26T00:04:12.853Z,25.90
2018-07-26T00:06:41.227Z,25.90
2018-07-26T00:09:10.847Z,26.00
2018-07-26T00:11:39.408Z,25.90
2018-07-26T00:14:08.220Z,25.90
2018-07-26T00:16:36.598Z,25.90
2018-07-26T00:19:05.026Z,25.80
2018-07-26T00:21:33.440Z,25.70
2018-07-26T00:24:02.360Z,25.70
2018-07-26T00:26:30.803Z,25.50
2018-07-26T00:28:59.140Z,25.60
2018-07-26T00:31:27.590Z,25.60
2018-07-26T00:33:56.312Z,25.60
2018-07-26T00:36:24.978Z,25.60
2018-07-26T00:38:53.406Z,25.60
2018-07-26T00:41:21.858Z,25.60
2018-07-26T00:43:50.201Z,25.70
2018-07-26T00:46:18.577Z,25.60
2018-07-26T00:48:47.016Z,25.50
2018-07-26T00:51:15.624Z,25.50
2018-07-26T00:53:43.986Z,25.40
2018-07-26T00:56:12.380Z,25.40
2018-07-26T00:58:40.810Z,25.40
2018-07-26T01:01:09.223Z,25.40
2018-07-26T01:03:37.625Z,25.40
2018-07-26T01:06:06.859Z,25.50
2018-07-26T01:08:35.185Z,25.40
2018-07-26T01:11:03.876Z,25.30
2018-07-26T01:13:32.218Z,25.10
2018-07-26T01:16:00.646Z,25.10
2018-07-26T01:18:29.081Z,25.10
2018-07-26T01:20:58.114Z,25.00
2018-07-26T01:24:56.388Z,24.90
2018-07-26T01:27:25.140Z,25.00
2018-07-26T01:29:53.501Z,24.80
2018-07-26T01:32:21.912Z,24.70
2018-07-26T01:34:50.381Z,24.70
2018-07-26T01:37:18.861Z,24.70
2018-07-26T01:39:47.319Z,24.50
2018-07-26T01:42:15.693Z,24.50
2018-07-26T01:44:44.320Z,24.50
2018-07-26T01:47:12.685Z,24.60
2018-07-26T01:49:41.060Z,24.60
2018-07-26T01:52:09.441Z,24.50
2018-07-26T01:54:37.825Z,24.40
2018-07-26T01:57:06.177Z,24.40
2018-07-26T02:02:02.687Z,24.30
2018-07-26T02:04:31.105Z,24.30
2018-07-26T02:06:59.493Z,24.30
2018-07-26T02:09:27.844Z,24.20
2018-07-26T02:11:56.464Z,24.20
2018-07-26T02:14:30.326Z,24.20
2018-07-26T02:16:58.650Z,24.10
2018-07-26T02:19:27.007Z,24.00
2018-07-26T02:21:55.499Z,23.90
2018-07-26T02:24:23.902Z,23.90
2018-07-26T02:26:52.355Z,24.00
2018-07-26T02:29:20.732Z,24.10
2018-07-26T02:31:49.458Z,24.00
2018-07-26T02:34:19.066Z,23.80
2018-07-26T02:36:48.155Z,23.80
2018-07-26T02:39:16.601Z,23.80
2018-07-26T02:41:45.282Z,23.80
2018-07-26T02:44:13.689Z,23.70
2018-07-26T02:46:42.006Z,23.70
2018-07-26T02:49:10.381Z,23.70
2018-07-26T02:51:38.802Z,23.70
2018-07-26T02:54:07.170Z,23.80
2018-07-26T02:56:35.740Z,23.70
2018-07-26T02:59:04.376Z,23.60
2018-07-26T03:01:32.779Z,23.70
2018-07-26T03:04:01.098Z,23.70
2018-07-26T03:06:29.503Z,23.70
2018-07-26T03:08:57.967Z,23.70
2018-07-26T03:11:26.450Z,23.70
2018-07-26T03:13:54.868Z,23.60
2018-07-26T03:16:23.252Z,23.70
2018-07-26T03:18:51.698Z,23.90
2018-07-26T03:21:20.018Z,23.90
2018-07-26T03:23:48.342Z,23.90
2018-07-26T03:26:16.693Z,23.90
2018-07-26T03:28:45.161Z,23.70
2018-07-26T03:31:13.518Z,23.60
2018-07-26T03:33:41.886Z,23.60
2018-07-26T03:36:10.252Z,23.70
2018-07-26T03:38:38.569Z,23.60
2018-07-26T03:41:06.989Z,23.60
2018-07-26T03:43:35.407Z,23.60
2018-07-26T03:46:03.864Z,23.60
2018-07-26T03:48:32.254Z,23.50
2018-07-26T03:51:00.653Z,23.50
2018-07-26T03:53:29.060Z,23.40
2018-07-26T03:55:57.500Z,23.40
2018-07-26T03:58:25.899Z,23.30
2018-07-26T04:00:54.316Z,23.30
2018-07-26T04:03:22.777Z,23.30
2018-07-26T04:05:51.189Z,23.40
2018-07-26T04:08:19.548Z,23.40
2018-07-26T04:10:47.931Z,23.40
2018-07-26T04:13:16.324Z,23.20
2018-07-26T04:15:44.676Z,23.20
2018-07-26T04:18:13.039Z,23.20
2018-07-26T04:20:41.387Z,23.20
2018-07-26T04:23:09.779Z,23.20
2018-07-26T04:25:38.380Z,23.20
2018-07-26T04:28:06.809Z,23.10
2018-07-26T04:30:35.700Z,23.20
2018-07-26T04:33:04.007Z,23.20
2018-07-26T04:35:32.404Z,23.10
2018-07-26T04:38:00.745Z,23.20
2018-07-26T04:40:29.175Z,23.30
2018-07-26T04:42:57.567Z,23.10
2018-07-26T04:45:25.922Z,23.00
2018-07-26T04:47:54.327Z,23.10
2018-07-26T04:50:23.325Z,23.20
2018-07-26T04:52:52.600Z,23.20
2018-07-26T04:55:20.946Z,23.30
2018-07-26T04:57:49.304Z,23.30
2018-07-26T05:00:17.708Z,23.20
2018-07-26T05:02:46.157Z,23.20
2018-07-26T05:05:14.583Z,23.30
2018-07-26T05:07:42.945Z,23.30
2018-07-26T05:10:11.378Z,23.40
2018-07-26T05:12:39.718Z,23.40
2018-07-26T05:15:08.424Z,23.20
2018-07-26T05:17:36.791Z,23.30
2018-07-26T05:20:06.240Z,23.30
2018-07-26T05:22:34.618Z,23.30
2018-07-26T05:25:03.415Z,23.30
2018-07-26T05:27:32.015Z,23.50
2018-07-26T05:30:00.745Z,23.50
2018-07-26T05:32:29.441Z,23.40
2018-07-26T05:34:57.875Z,23.50
2018-07-26T05:37:26.233Z,23.50
2018-07-26T05:39:54.584Z,23.50
2018-07-26T05:42:23.393Z,23.70
2018-07-26T05:44:51.727Z,23.60
2018-07-26T05:47:20.159Z,23.70
2018-07-26T05:49:48.839Z,23.60
2018-07-26T05:52:17.253Z,23.80
2018-07-26T05:54:45.624Z,24.00
2018-07-26T05:57:13.991Z,23.90
2018-07-26T05:59:42.801Z,24.00
2018-07-26T06:02:11.747Z,24.00
2018-07-26T06:04:40.247Z,24.20
2018-07-26T06:07:08.665Z,24.10
2018-07-26T06:09:37.093Z,24.10
2018-07-26T06:12:05.392Z,24.20
2018-07-26T06:14:33.772Z,24.40
2018-07-26T06:19:30.265Z,24.40
2018-07-26T06:21:58.663Z,24.50
2018-07-26T06:24:27.027Z,24.50
2018-07-26T06:26:55.393Z,24.80
2018-07-26T06:29:23.888Z,24.80
2018-07-26T06:31:52.381Z,24.70
2018-07-26T06:34:21.073Z,24.80
2018-07-26T06:36:49.413Z,24.90
2018-07-26T06:39:18.173Z,25.00
2018-07-26T06:41:46.549Z,25.00
2018-07-26T06:44:15.471Z,25.10
2018-07-26T06:46:43.887Z,25.30
2018-07-26T06:49:12.239Z,25.40
2018-07-26T06:51:40.596Z,25.50
2018-07-26T06:54:09.038Z,25.70
2018-07-26T06:56:37.444Z,25.70
2018-07-26T06:59:06.484Z,25.90
2018-07-26T07:01:34.948Z,25.90
2018-07-26T07:04:03.395Z,26.10
2018-07-26T07:06:31.811Z,26.20
2018-07-26T07:09:00.501Z,26.40
2018-07-26T07:11:28.815Z,26.40
2018-07-26T07:13:57.821Z,26.50
2018-07-26T07:16:26.193Z,26.70
2018-07-26T07:18:54.607Z,26.90
2018-07-26T07:21:22.968Z,26.80
2018-07-26T07:23:51.403Z,26.80
2018-07-26T07:26:19.801Z,27.00
2018-07-26T07:28:48.151Z,27.10
2018-07-26T07:31:16.642Z,27.20
2018-07-26T07:33:45.013Z,27.20
2018-07-26T07:36:13.356Z,27.50
2018-07-26T07:38:41.958Z,27.60
2018-07-26T07:41:10.404Z,27.70
2018-07-26T07:43:38.839Z,27.70
2018-07-26T07:46:07.581Z,27.90
2018-07-26T07:48:36.509Z,28.00
2018-07-26T07:51:05.164Z,28.10
2018-07-26T07:53:33.599Z,28.30
2018-07-26T07:56:02.260Z,28.10
2018-07-26T07:58:30.928Z,28.30
2018-07-26T08:00:59.326Z,28.60
2018-07-26T08:03:27.781Z,28.60
2018-07-26T08:05:56.149Z,28.80
2018-07-26T08:08:24.485Z,28.70
2018-07-26T08:10:52.849Z,28.70
2018-07-26T08:13:21.183Z,28.90
2018-07-26T08:15:49.555Z,29.20
2018-07-26T08:18:17.982Z,29.50
2018-07-26T08:20:46.450Z,29.30
2018-07-26T08:23:14.869Z,29.50
2018-07-26T08:25:43.243Z,29.50
2018-07-26T08:28:11.654Z,29.70
2018-07-26T08:30:40.043Z,29.70
2018-07-26T08:33:08.377Z,30.00
2018-07-26T08:35:36.776Z,30.20
2018-07-26T08:38:05.201Z,29.90
2018-07-26T08:40:33.631Z,29.70
2018-07-26T08:43:01.989Z,30.20
2018-07-26T08:45:30.398Z,30.50
2018-07-26T08:47:58.767Z,30.40
2018-07-26T08:50:27.102Z,30.50
2018-07-26T08:52:56.198Z,30.90
2018-07-26T08:55:24.576Z,31.00
2018-07-26T08:57:52.973Z,30.90
2018-07-26T09:00:21.361Z,31.20
2018-07-26T09:04:18.936Z,31.30
2018-07-26T09:06:47.308Z,31.40
2018-07-26T09:09:15.632Z,31.80
2018-07-26T09:11:43.978Z,31.60
2018-07-26T09:14:12.333Z,31.90
2018-07-26T09:16:40.748Z,31.70
2018-07-26T09:19:09.075Z,31.60
2018-07-26T09:21:37.424Z,32.20
2018-07-26T09:24:06.100Z,33.20
2018-07-26T09:26:34.758Z,34.00
2018-07-26T09:29:03.176Z,34.50
2018-07-26T09:31:31.571Z,34.70
2018-07-26T09:33:59.956Z,34.40
2018-07-26T09:36:29.266Z,34.50
2018-07-26T09:38:57.940Z,34.70
2018-07-26T09:41:26.616Z,35.20
2018-07-26T09:43:54.965Z,35.30
2018-07-26T09:46:23.699Z,34.90
2018-07-26T09:48:52.018Z,34.70
2018-07-26T09:51:20.370Z,35.00
2018-07-26T09:53:48.757Z,34.60
2018-07-26T09:56:17.314Z,34.30
2018-07-26T09:58:45.758Z,34.80
2018-07-26T10:01:19.571Z,34.80
2018-07-26T10:03:48.685Z,35.10
2018-07-26T10:06:17.051Z,34.50
2018-07-26T10:08:45.423Z,34.70
2018-07-26T10:11:13.824Z,34.90
2018-07-26T10:13:42.297Z,35.00
2018-07-26T10:16:10.734Z,35.40
2018-07-26T10:18:39.121Z,35.40
2018-07-26T10:21:07.555Z,35.90
2018-07-26T10:26:04.287Z,36.10
2018-07-26T10:28:32.667Z,35.70
2018-07-26T10:31:01.033Z,35.70
2018-07-26T10:33:29.464Z,35.80
2018-07-26T10:35:57.862Z,35.30
2018-07-26T10:38:26.209Z,35.30
2018-07-26T10:40:54.595Z,35.70
2018-07-26T10:43:22.954Z,36.00
2018-07-26T10:45:51.936Z,35.80
2018-07-26T10:48:20.394Z,35.60
2018-07-26T10:50:48.760Z,36.00
2018-07-26T10:53:17.202Z,36.00
2018-07-26T10:55:45.629Z,35.80
2018-07-26T10:58:14.032Z,35.50
2018-07-26T11:00:42.407Z,36.10
2018-07-26T11:03:10.794Z,36.50
2018-07-26T11:05:39.185Z,36.80
2018-07-26T11:08:07.585Z,36.50
2018-07-26T11:10:36.000Z,36.60
2018-07-26T11:13:04.404Z,36.50
2018-07-26T11:15:36.556Z,36.90
2018-07-26T11:18:05.117Z,37.30
2018-07-26T11:20:33.448Z,36.60
2018-07-26T11:23:02.136Z,36.70
2018-07-26T11:25:30.539Z,37.00
2018-07-26T11:27:58.865Z,37.10
2018-07-26T11:30:27.205Z,38.20
2018-07-26T11:32:55.552Z,37.90
2018-07-26T11:35:23.988Z,38.00
2018-07-26T11:37:52.432Z,38.50
2018-07-26T11:40:20.765Z,39.10
2018-07-26T11:42:49.485Z,38.60
2018-07-26T11:45:17.955Z,38.80
2018-07-26T11:47:46.275Z,37.80
2018-07-26T11:50:15.189Z,38.30
2018-07-26T11:52:43.575Z,38.30
2018-07-26T11:55:11.978Z,38.10
2018-07-26T11:57:40.635Z,37.80
2018-07-26T12:00:09.520Z,38.20
2018-07-26T12:02:37.921Z,38.70
2018-07-26T12:05:06.367Z,38.80
2018-07-26T12:07:34.905Z,38.50
2018-07-26T12:10:03.382Z,38.50
2018-07-26T12:12:31.754Z,38.70
2018-07-26T12:15:00.572Z,38.50
2018-07-26T12:17:28.971Z,38.60
2018-07-26T12:19:57.842Z,39.20
2018-07-26T12:22:26.353Z,39.10
2018-07-26T12:24:54.831Z,38.20
2018-07-26T12:27:23.512Z,39.00
2018-07-26T12:29:51.919Z,38.70
2018-07-26T12:32:20.316Z,38.80
2018-07-26T12:34:48.688Z,38.80
2018-07-26T12:37:17.075Z,38.80
2018-07-26T12:39:45.387Z,39.30
2018-07-26T12:42:13.782Z,38.90
2018-07-26T12:44:42.119Z,38.90
2018-07-26T12:47:11.077Z,38.80
2018-07-26T12:49:39.450Z,38.80
2018-07-26T12:52:07.880Z,38.90
2018-07-26T12:54:36.196Z,38.20
2018-07-26T12:59:32.665Z,38.10
2018-07-26T13:02:01.362Z,37.70
2018-07-26T13:04:29.733Z,38.20
2018-07-26T13:06:58.564Z,38.40
2018-07-26T13:09:26.944Z,38.70
2018-07-26T13:11:55.320Z,38.80
2018-07-26T13:14:23.974Z,38.50
2018-07-26T13:16:52.317Z,38.70
2018-07-26T13:19:20.795Z,39.00
2018-07-26T13:21:49.246Z,38.50
2018-07-26T13:24:17.637Z,38.80
2018-07-26T13:26:45.976Z,38.10
2018-07-26T13:29:14.699Z,38.40
2018-07-26T13:31:43.075Z,39.10
2018-07-26T13:34:11.490Z,39.40
2018-07-26T13:36:39.888Z,39.20
2018-07-26T13:39:10.565Z,39.00
2018-07-26T13:41:38.953Z,39.00
2018-07-26T13:44:07.712Z,38.80
2018-07-26T13:46:36.933Z,38.10
2018-07-26T13:49:05.349Z,37.50
2018-07-26T13:51:33.722Z,37.70
2018-07-26T13:54:02.198Z,37.90
2018-07-26T13:56:30.865Z,37.70
2018-07-26T13:58:59.523Z,37.90
2018-07-26T14:01:27.886Z,38.10
2018-07-26T14:03:56.354Z,38.70
2018-07-26T14:06:24.753Z,39.20
2018-07-26T14:08:53.137Z,38.80
2018-07-26T14:11:21.502Z,38.60
2018-07-26T14:13:49.892Z,38.10
2018-07-26T14:16:18.265Z,38.30
2018-07-26T14:18:46.697Z,38.40
2018-07-26T14:21:15.111Z,38.60
2018-07-26T14:23:43.514Z,38.00
2018-07-26T14:26:12.861Z,37.80
2018-07-26T14:28:41.648Z,37.70
2018-07-26T14:31:10.558Z,37.70
2018-07-26T14:33:38.899Z,37.40
2018-07-26T14:36:07.224Z,37.70
2018-07-26T14:38:35.644Z,37.50
2018-07-26T14:41:04.085Z,37.20
2018-07-26T14:43:32.513Z,37.00
2018-07-26T14:46:00.964Z,36.90
2018-07-26T14:48:29.398Z,37.00
2018-07-26T14:50:57.783Z,36.70
2018-07-26T14:53:26.128Z,37.20
2018-07-26T14:55:54.606Z,37.30
2018-07-26T14:58:23.359Z,37.30
2018-07-26T15:00:51.793Z,37.30
2018-07-26T15:03:20.246Z,37.00
2018-07-26T15:05:48.569Z,37.20
2018-07-26T15:08:16.962Z,37.00
2018-07-26T15:10:45.317Z,36.70
2018-07-26T15:13:13.686Z,36.70
2018-07-26T15:15:42.354Z,36.80
2018-07-26T15:18:10.688Z,36.90
2018-07-26T15:20:39.127Z,36.60
2018-07-26T15:23:07.593Z,36.70
2018-07-26T15:25:36.093Z,36.60
2018-07-26T15:28:04.928Z,36.40
2018-07-26T15:30:33.404Z,36.20
2018-07-26T15:33:01.879Z,36.10
2018-07-26T15:35:30.542Z,36.10
2018-07-26T15:37:58.968Z,36.10
2018-07-26T15:42:55.876Z,36.00
2018-07-26T15:45:24.323Z,36.00
2018-07-26T15:50:20.831Z,36.00
2018-07-26T15:52:49.236Z,36.00
2018-07-26T15:55:17.593Z,36.00
2018-07-26T15:57:45.936Z,35.90
2018-07-26T16:00:14.565Z,35.70
2018-07-26T16:02:42.990Z,35.70
2018-07-26T16:05:11.502Z,35.60
2018-07-26T16:07:39.947Z,35.70
2018-07-26T16:10:09.185Z,35.70
2018-07-26T16:12:37.894Z,35.60
2018-07-26T16:15:08.423Z,35.60
2018-07-26T16:17:37.211Z,35.50
2018-07-26T16:20:07.061Z,35.40
2018-07-26T16:22:35.485Z,35.40
2018-07-26T16:25:04.710Z,35.30
2018-07-26T16:27:33.628Z,35.30
2018-07-26T16:30:02.053Z,35.20
2018-07-26T16:32:30.475Z,35.20
2018-07-26T16:34:58.849Z,35.10
2018-07-26T16:39:55.298Z,34.90
2018-07-26T16:42:23.706Z,34.80
2018-07-26T16:44:52.447Z,34.30
2018-07-26T16:47:20.845Z,34.00
2018-07-26T16:49:49.197Z,33.90
2018-07-26T16:52:17.557Z,33.80
2018-07-26T16:54:46.239Z,33.40
2018-07-26T16:57:14.754Z,32.70
2018-07-26T16:59:43.135Z,31.80
2018-07-26T17:02:11.536Z,30.50
2018-07-26T17:04:39.890Z,28.60
2018-07-26T17:07:08.565Z,25.90
2018-07-26T17:09:37.243Z,25.20
2018-07-26T17:12:05.638Z,25.30
2018-07-26T17:14:33.960Z,25.40
2018-07-26T17:17:02.344Z,25.40
2018-07-26T17:19:30.743Z,24.80
2018-07-26T17:21:59.114Z,24.80
2018-07-26T17:24:27.781Z,24.70
2018-07-26T17:26:56.416Z,24.70
2018-07-26T17:29:24.780Z,25.00
2018-07-26T17:31:53.248Z,24.70
2018-07-26T17:34:21.881Z,24.70
2018-07-26T17:39:18.987Z,24.40
2018-07-26T17:41:47.403Z,24.70
2018-07-26T17:44:16.100Z,24.60
2018-07-26T17:46:44.503Z,24.50
2018-07-26T17:49:12.868Z,24.70
2018-07-26T17:51:41.197Z,25.00
2018-07-26T17:54:09.596Z,25.00
2018-07-26T17:56:38.032Z,25.10
2018-07-26T17:59:06.620Z,25.20
2018-07-26T18:01:34.977Z,25.30
2018-07-26T18:04:03.366Z,25.30
2018-07-26T18:06:31.770Z,25.40
2018-07-26T18:09:00.193Z,25.60
2018-07-26T18:11:28.602Z,25.70
2018-07-26T18:13:57.039Z,25.70
2018-07-26T18:16:25.400Z,25.70
2018-07-26T18:18:53.748Z,25.70
2018-07-26T18:21:22.113Z,26.00
2018-07-26T18:23:50.492Z,26.00
2018-07-26T18:26:18.998Z,26.10
2018-07-26T18:28:47.331Z,26.20
2018-07-26T18:33:43.805Z,26.20
2018-07-26T18:36:12.174Z,26.30
2018-07-26T18:38:40.571Z,26.30
2018-07-26T18:41:09.009Z,26.40
2018-07-26T18:43:37.413Z,26.50
2018-07-26T18:46:05.885Z,26.60
2018-07-26T18:48:34.248Z,26.60
2018-07-26T18:51:02.617Z,26.60
2018-07-26T18:53:31.052Z,26.70
2018-07-26T18:58:27.496Z,26.60
2018-07-26T19:00:56.205Z,26.70
2018-07-26T19:03:24.913Z,26.60
2018-07-26T19:05:53.317Z,26.50
2018-07-26T19:08:21.753Z,26.50
2018-07-26T19:10:50.137Z,26.50
2018-07-26T19:13:18.526Z,26.50
2018-07-26T19:18:14.941Z,26.50
2018-07-26T19:20:44.017Z,26.50
2018-07-26T19:23:12.473Z,26.50
2018-07-26T19:25:40.947Z,26.50
2018-07-26T19:28:09.301Z,26.60
2018-07-26T19:30:37.981Z,26.60
2018-07-26T19:33:06.530Z,26.60
2018-07-26T19:35:34.961Z,26.50
2018-07-26T19:38:03.326Z,26.60
2018-07-26T19:40:31.764Z,26.50
2018-07-26T19:43:00.264Z,26.40
2018-07-26T19:45:28.653Z,26.30
2018-07-26T19:47:57.036Z,26.20
2018-07-26T19:50:25.366Z,26.30
2018-07-26T19:52:53.757Z,26.40
2018-07-26T19:55:22.082Z,26.30
2018-07-26T19:57:50.443Z,26.30
2018-07-26T20:00:18.837Z,26.30
2018-07-26T20:02:47.243Z,26.40
2018-07-26T20:05:15.589Z,26.30
2018-07-26T20:07:44.073Z,26.30
2018-07-26T20:12:41.869Z,26.40
2018-07-26T20:15:10.372Z,26.40
2018-07-26T20:17:38.711Z,26.40
2018-07-26T20:20:08.899Z,26.40
2018-07-26T20:22:37.380Z,26.30
2018-07-26T20:25:05.884Z,26.30
2018-07-26T20:27:34.264Z,26.30
2018-07-26T20:30:02.758Z,26.30
2018-07-26T20:32:31.457Z,26.40
2018-07-26T20:34:59.874Z,26.40
2018-07-26T20:37:28.288Z,26.40
2018-07-26T20:39:56.694Z,26.10
2018-07-26T20:42:25.073Z,26.00
2018-07-26T20:44:53.777Z,26.00
2018-07-26T20:47:22.176Z,26.10
2018-07-26T20:49:50.808Z,26.20
2018-07-26T20:52:19.215Z,26.30
2018-07-26T20:54:47.662Z,26.30
2018-07-26T20:57:16.037Z,26.30
2018-07-26T20:59:44.468Z,26.20
2018-07-26T21:02:13.137Z,26.40
2018-07-26T21:04:41.465Z,26.30
2018-07-26T21:07:10.208Z,26.20
2018-07-26T21:09:38.786Z,26.00
2018-07-26T21:12:07.241Z,26.00
2018-07-26T21:14:35.754Z,25.80
2018-07-26T21:17:04.181Z,25.80
2018-07-26T21:19:32.566Z,25.90
2018-07-26T21:22:00.955Z,25.80
2018-07-26T21:26:57.473Z,25.80
2018-07-26T21:29:25.860Z,26.00
2018-07-26T21:31:54.466Z,26.00
2018-07-26T21:34:23.096Z,25.90
2018-07-26T21:36:51.418Z,25.90
2018-07-26T21:39:21.388Z,25.80
2018-07-26T21:41:49.831Z,25.70
2018-07-26T21:44:18.215Z,25.80
2018-07-26T21:46:46.591Z,25.80
2018-07-26T21:49:15.079Z,25.70
2018-07-26T21:54:11.500Z,25.70
2018-07-26T21:56:40.210Z,25.70
2018-07-26T21:59:08.605Z,25.80
2018-07-26T22:01:36.933Z,25.80
2018-07-26T22:04:05.308Z,25.80
2018-07-26T22:06:33.770Z,25.80
2018-07-26T22:09:02.192Z,25.80
2018-07-26T22:11:30.905Z,25.90
2018-07-26T22:13:59.776Z,25.90
2018-07-26T22:16:28.153Z,26.00
2018-07-26T22:18:56.519Z,26.00
2018-07-26T22:21:24.889Z,26.10
2018-07-26T22:23:53.257Z,26.10
2018-07-26T22:26:21.663Z,26.10
2018-07-26T22:28:50.159Z,26.20
2018-07-26T22:31:18.842Z,26.10
2018-07-26T22:33:47.283Z,26.10
2018-07-26T22:36:15.654Z,25.90
2018-07-26T22:38:44.049Z,26.00
2018-07-26T22:41:12.696Z,26.10
2018-07-26T22:43:41.054Z,26.10
2018-07-26T22:46:09.507Z,26.20
2018-07-26T22:48:37.877Z,26.10
2018-07-26T22:51:06.309Z,26.10
2018-07-26T22:53:34.727Z,26.10
2018-07-26T22:56:03.182Z,26.20
2018-07-26T22:58:31.798Z,26.20
2018-07-26T23:01:00.131Z,26.20
2018-07-26T23:03:28.781Z,26.10
2018-07-26T23:05:57.524Z,26.20
2018-07-26T23:08:25.860Z,26.20
2018-07-26T23:10:54.223Z,26.20
2018-07-26T23:13:22.976Z,26.10
2018-07-26T23:15:51.562Z,26.20
2018-07-26T23:18:20.456Z,26.20
2018-07-26T23:20:48.861Z,26.20
2018-07-26T23:23:17.293Z,26.20
2018-07-26T23:25:45.672Z,26.30
2018-07-26T23:28:15.280Z,26.30
2018-07-26T23:30:43.672Z,26.30
2018-07-26T23:33:12.054Z,26.30
2018-07-26T23:35:40.803Z,26.20
2018-07-26T23:38:09.159Z,26.30
2018-07-26T23:40:37.579Z,26.30
2018-07-26T23:43:05.995Z,26.30
2018-07-26T23:45:34.700Z,26.30
2018-07-26T23:48:03.185Z,26.30
2018-07-26T23:50:31.556Z,26.30
2018-07-26T23:52:59.934Z,26.40
2018-07-26T23:55:28.256Z,26.50
2018-07-26T23:57:56.665Z,26.50
